createdAt,value
2018-09-29T00:01:09.516Z,77.08
2018-09-29T00:03:39.651Z,76.74
2018-09-29T00:06:09.710Z,77.03
2018-09-29T00:08:39.724Z,77.34
2018-09-29T00:11:10.148Z,77.13
2018-09-29T00:13:40.238Z,76.95
2018-09-29T00:16:11.031Z,76.33
2018-09-29T00:18:41.067Z,76.77
2018-09-29T00:21:11.182Z,76.48
2018-09-29T00:23:41.262Z,76.41
2018-09-29T00:26:11.544Z,76.92
2018-09-29T00:28:41.752Z,76.68
2018-09-29T00:31:11.993Z,75.89
2018-09-29T00:33:42.182Z,74.80
2018-09-29T00:36:12.267Z,74.21
2018-09-29T00:38:42.605Z,75.48
2018-09-29T00:41:12.795Z,74.97
2018-09-29T00:43:43.077Z,74.34
2018-09-29T00:46:13.784Z,74.12
2018-09-29T00:48:44.010Z,73.58
2018-09-29T00:51:14.275Z,74.50
2018-09-29T00:53:44.452Z,73.17
2018-09-29T00:56:15.592Z,73.27
2018-09-29T00:58:45.644Z,73.20
2018-09-29T01:01:15.801Z,72.46
2018-09-29T01:03:46.009Z,72.99
2018-09-29T01:06:16.013Z,72.72
2018-09-29T01:08:46.327Z,72.37
2018-09-29T01:11:16.453Z,73.17
2018-09-29T01:13:46.843Z,72.26
2018-09-29T01:16:16.912Z,72.26
2018-09-29T01:18:47.109Z,70.91
2018-09-29T01:21:17.062Z,71.60
2018-09-29T01:23:47.163Z,70.41
2018-09-29T01:26:17.209Z,70.76
2018-09-29T01:28:47.442Z,69.38
2018-09-29T01:31:17.676Z,69.22
2018-09-29T01:33:47.748Z,69.14
2018-09-29T01:36:17.954Z,69.59
2018-09-29T01:38:47.944Z,69.81
2018-09-29T01:41:18.104Z,69.10
2018-09-29T01:43:48.372Z,68.78
2018-09-29T01:46:18.268Z,68.77
2018-09-29T01:48:48.405Z,68.75
2018-09-29T01:51:18.533Z,69.04
2018-09-29T01:53:48.751Z,69.09
2018-09-29T01:56:19.163Z,68.63
2018-09-29T01:58:51.954Z,69.09
2018-09-29T02:01:21.984Z,69.99
2018-09-29T02:03:52.057Z,69.42
2018-09-29T02:06:22.294Z,69.01
2018-09-29T02:08:52.606Z,69.37
2018-09-29T02:11:22.610Z,69.77
2018-09-29T02:13:53.296Z,69.58
2018-09-29T02:16:23.296Z,69.57
2018-09-29T02:18:53.328Z,69.68
2018-09-29T02:21:23.572Z,70.10
2018-09-29T02:23:53.508Z,70.97
2018-09-29T02:26:23.562Z,71.30
2018-09-29T02:28:53.778Z,71.69
2018-09-29T02:31:23.892Z,71.09
2018-09-29T02:33:54.364Z,71.73
2018-09-29T02:36:24.418Z,71.14
2018-09-29T02:38:54.414Z,71.35
2018-09-29T02:41:24.420Z,71.69
2018-09-29T02:43:54.765Z,70.92
2018-09-29T02:46:24.709Z,71.34
2018-09-29T02:48:54.778Z,71.95
2018-09-29T02:51:25.168Z,71.77
2018-09-29T02:53:55.207Z,72.27
2018-09-29T02:56:25.308Z,71.21
2018-09-29T02:58:55.531Z,71.59
2018-09-29T03:01:25.865Z,70.34
2018-09-29T03:03:56.194Z,70.83
2018-09-29T03:06:26.347Z,69.66
2018-09-29T03:08:56.516Z,70.49
2018-09-29T03:11:26.738Z,70.46
2018-09-29T03:13:56.648Z,70.08
2018-09-29T03:16:26.881Z,69.93
2018-09-29T03:18:56.993Z,69.71
2018-09-29T03:21:27.118Z,69.66
2018-09-29T03:23:57.184Z,69.22
2018-09-29T03:26:27.183Z,69.20
2018-09-29T03:28:58.843Z,69.53
2018-09-29T03:31:28.940Z,68.97
2018-09-29T03:33:58.817Z,69.43
2018-09-29T03:36:29.009Z,68.96
2018-09-29T03:38:59.704Z,68.47
2018-09-29T03:41:29.913Z,68.64
2018-09-29T03:44:00.651Z,68.08
2018-09-29T03:46:30.663Z,68.65
2018-09-29T03:49:00.929Z,67.93
2018-09-29T03:51:31.317Z,66.64
2018-09-29T03:54:01.985Z,68.01
2018-09-29T03:56:32.051Z,67.56
2018-09-29T03:59:02.382Z,67.40
2018-09-29T04:01:32.501Z,66.70
2018-09-29T04:04:02.631Z,67.31
2018-09-29T04:06:32.695Z,67.41
2018-09-29T04:09:02.759Z,66.42
2018-09-29T04:11:32.951Z,66.87
2018-09-29T04:14:04.439Z,66.84
2018-09-29T04:16:34.400Z,67.37
2018-09-29T04:19:04.467Z,67.40
2018-09-29T04:21:38.524Z,67.90
2018-09-29T04:24:08.692Z,67.02
2018-09-29T04:26:38.710Z,67.07
2018-09-29T04:29:08.811Z,67.01
2018-09-29T04:31:39.153Z,67.44
2018-09-29T04:34:09.373Z,67.68
2018-09-29T04:36:39.499Z,67.53
2018-09-29T04:39:12.074Z,67.57
2018-09-29T04:41:42.106Z,67.11
2018-09-29T04:44:12.900Z,67.21
2018-09-29T04:46:43.260Z,67.08
2018-09-29T04:49:13.410Z,67.32
2018-09-29T04:51:43.278Z,67.95
2018-09-29T04:54:13.311Z,68.16
2018-09-29T04:56:43.464Z,67.51
2018-09-29T04:59:13.692Z,67.11
2018-09-29T05:01:43.706Z,67.61
2018-09-29T05:04:13.983Z,68.06
2018-09-29T05:06:44.005Z,68.04
2018-09-29T05:09:14.111Z,68.72
2018-09-29T05:11:44.231Z,68.38
2018-09-29T05:14:14.101Z,67.87
2018-09-29T05:16:44.083Z,68.23
2018-09-29T05:19:14.077Z,68.11
2018-09-29T05:21:44.175Z,68.63
2018-09-29T05:24:14.125Z,68.63
2018-09-29T05:26:44.292Z,68.21
2018-09-29T05:29:14.578Z,68.53
2018-09-29T05:31:44.527Z,68.74
2018-09-29T05:34:15.048Z,69.04
2018-09-29T05:36:45.468Z,68.25
2018-09-29T05:39:16.732Z,68.61
2018-09-29T05:41:46.758Z,68.96
2018-09-29T05:44:16.876Z,69.31
2018-09-29T05:46:47.039Z,69.05
2018-09-29T05:49:17.360Z,68.96
2018-09-29T05:51:47.746Z,68.56
2018-09-29T05:54:18.981Z,68.04
2018-09-29T05:56:49.482Z,68.99
2018-09-29T05:59:19.755Z,68.96
2018-09-29T06:01:49.817Z,69.15
2018-09-29T06:04:20.110Z,69.26
2018-09-29T06:06:50.298Z,69.33
2018-09-29T06:09:20.450Z,68.98
2018-09-29T06:11:50.514Z,69.44
2018-09-29T06:14:20.535Z,69.60
2018-09-29T06:16:51.484Z,68.96
2018-09-29T06:19:21.609Z,69.58
2018-09-29T06:21:51.733Z,69.07
2018-09-29T06:24:21.746Z,69.04
2018-09-29T06:26:51.802Z,68.96
2018-09-29T06:29:22.372Z,68.96
2018-09-29T06:31:52.614Z,69.53
2018-09-29T06:34:22.805Z,68.82
2018-09-29T06:36:53.871Z,69.33
2018-09-29T06:39:24.474Z,69.24
2018-09-29T06:41:54.473Z,69.58
2018-09-29T06:44:24.739Z,69.22
2018-09-29T06:46:55.123Z,69.30
2018-09-29T06:49:25.293Z,69.60
2018-09-29T06:51:55.431Z,69.23
2018-09-29T06:54:25.687Z,68.85
2018-09-29T06:56:55.775Z,68.54
2018-09-29T06:59:25.996Z,68.95
2018-09-29T07:01:56.272Z,68.58
2018-09-29T07:04:26.401Z,67.74
2018-09-29T07:06:56.625Z,68.78
2018-09-29T07:09:26.812Z,68.57
2018-09-29T07:11:56.969Z,67.73
2018-09-29T07:14:27.395Z,67.58
2018-09-29T07:16:57.678Z,67.86
2018-09-29T07:19:27.885Z,67.64
2018-09-29T07:21:58.261Z,67.34
2018-09-29T07:24:28.415Z,66.08
2018-09-29T07:26:58.443Z,66.32
2018-09-29T07:29:28.465Z,66.24
2018-09-29T07:31:58.757Z,65.64
2018-09-29T07:34:29.526Z,64.83
2018-09-29T07:36:59.901Z,65.30
2018-09-29T07:39:30.589Z,65.56
2018-09-29T07:42:00.754Z,65.64
2018-09-29T07:44:31.083Z,64.68
2018-09-29T07:47:01.824Z,64.77
2018-09-29T07:49:32.034Z,65.21
2018-09-29T07:52:02.405Z,65.08
2018-09-29T07:54:32.721Z,63.95
2018-09-29T07:57:02.810Z,63.53
2018-09-29T07:59:32.948Z,63.86
2018-09-29T08:02:03.886Z,62.42
2018-09-29T08:04:34.915Z,62.84
2018-09-29T08:07:05.294Z,61.75
2018-09-29T08:09:35.552Z,62.45
2018-09-29T08:12:05.922Z,61.35
2018-09-29T08:14:36.958Z,60.83
2018-09-29T08:17:07.117Z,60.91
2018-09-29T08:19:37.509Z,60.74
2018-09-29T08:22:07.737Z,60.15
2018-09-29T08:24:37.988Z,59.60
2018-09-29T08:27:08.273Z,59.17
2018-09-29T08:29:38.409Z,59.10
2018-09-29T08:32:08.843Z,58.94
2018-09-29T08:34:39.034Z,59.11
2018-09-29T08:37:08.989Z,58.67
2018-09-29T08:39:39.286Z,58.93
2018-09-29T08:42:09.367Z,60.01
2018-09-29T08:44:39.535Z,60.49
2018-09-29T08:47:09.687Z,60.65
2018-09-29T08:49:40.512Z,60.31
2018-09-29T08:52:10.780Z,60.60
2018-09-29T08:54:40.859Z,60.46
2018-09-29T08:57:10.982Z,61.10
2018-09-29T08:59:41.073Z,60.85
2018-09-29T09:02:11.472Z,61.12
2018-09-29T09:04:41.724Z,60.95
2018-09-29T09:07:11.978Z,61.33
2018-09-29T09:09:42.131Z,61.06
2018-09-29T09:12:12.428Z,61.10
2018-09-29T09:14:42.675Z,61.12
2018-09-29T09:17:13.281Z,61.16
2018-09-29T09:19:43.540Z,61.79
2018-09-29T09:22:13.925Z,60.80
2018-09-29T09:24:44.173Z,60.38
2018-09-29T09:27:14.328Z,60.95
2018-09-29T09:29:44.536Z,60.37
2018-09-29T09:32:14.819Z,60.06
2018-09-29T09:34:44.987Z,60.94
2018-09-29T09:37:15.143Z,60.09
2018-09-29T09:39:45.560Z,59.78
2018-09-29T09:42:15.779Z,60.53
2018-09-29T09:44:46.205Z,59.65
2018-09-29T09:47:16.550Z,59.96
2018-09-29T09:49:46.610Z,59.21
2018-09-29T09:52:16.948Z,60.20
2018-09-29T09:54:47.225Z,60.00
2018-09-29T09:57:17.511Z,58.29
2018-09-29T09:59:47.569Z,58.79
2018-09-29T10:02:22.896Z,58.53
2018-09-29T10:04:52.980Z,59.37
2018-09-29T10:07:23.229Z,60.18
2018-09-29T10:09:53.373Z,57.86
2018-09-29T10:12:23.675Z,59.33
2018-09-29T10:14:53.851Z,58.51
2018-09-29T10:17:24.107Z,58.04
2018-09-29T10:19:54.385Z,57.15
2018-09-29T10:22:24.539Z,58.16
2018-09-29T10:24:55.133Z,58.59
2018-09-29T10:27:25.303Z,57.33
2018-09-29T10:29:55.585Z,58.76
2018-09-29T10:32:25.536Z,57.45
2018-09-29T10:34:55.914Z,57.34
2018-09-29T10:37:26.267Z,57.51
2018-09-29T10:39:56.666Z,56.56
2018-09-29T10:42:26.916Z,56.84
2018-09-29T10:44:57.178Z,57.00
2018-09-29T10:47:28.208Z,56.60
2018-09-29T10:49:58.405Z,56.44
2018-09-29T10:52:28.724Z,56.45
2018-09-29T10:54:58.937Z,55.68
2018-09-29T10:57:29.123Z,56.98
2018-09-29T10:59:59.432Z,56.75
2018-09-29T11:02:29.561Z,54.99
2018-09-29T11:04:59.840Z,57.31
2018-09-29T11:07:29.816Z,55.87
2018-09-29T11:10:00.005Z,57.04
2018-09-29T11:12:30.125Z,55.15
2018-09-29T11:15:00.388Z,55.01
2018-09-29T11:17:30.630Z,54.87
2018-09-29T11:20:00.965Z,54.92
2018-09-29T11:22:31.196Z,55.07
2018-09-29T11:25:01.582Z,54.85
2018-09-29T11:27:31.705Z,55.21
2018-09-29T11:30:01.826Z,55.04
2018-09-29T11:32:32.114Z,55.12
2018-09-29T11:35:02.327Z,54.86
2018-09-29T11:37:32.546Z,54.08
2018-09-29T11:40:02.865Z,53.98
2018-09-29T11:42:32.951Z,54.65
2018-09-29T11:45:03.191Z,54.56
2018-09-29T11:47:33.666Z,51.66
2018-09-29T11:50:03.795Z,51.88
2018-09-29T11:52:34.049Z,51.48
2018-09-29T11:55:04.401Z,52.61
2018-09-29T11:57:34.606Z,53.02
2018-09-29T12:00:04.859Z,52.21
2018-09-29T12:02:34.895Z,52.80
2018-09-29T12:05:05.049Z,52.29
2018-09-29T12:07:35.250Z,51.52
2018-09-29T12:10:05.386Z,52.67
2018-09-29T12:12:35.687Z,51.76
2018-09-29T12:15:05.821Z,51.28
2018-09-29T12:17:36.005Z,52.18
2018-09-29T12:20:06.192Z,53.01
2018-09-29T12:22:36.361Z,52.55
2018-09-29T12:25:06.739Z,50.99
2018-09-29T12:27:37.337Z,51.94
2018-09-29T12:30:08.139Z,51.37
2018-09-29T12:32:38.242Z,50.02
2018-09-29T12:35:08.504Z,51.89
2018-09-29T12:37:38.843Z,51.10
2018-09-29T12:40:08.961Z,50.81
2018-09-29T12:42:39.267Z,50.51
2018-09-29T12:45:09.581Z,49.18
2018-09-29T12:47:39.883Z,50.46
2018-09-29T12:50:10.208Z,50.01
2018-09-29T12:52:40.397Z,49.71
2018-09-29T12:55:10.584Z,49.85
2018-09-29T12:57:40.881Z,49.25
2018-09-29T13:00:11.131Z,49.40
2018-09-29T13:02:41.139Z,50.09
2018-09-29T13:05:11.333Z,49.00
2018-09-29T13:07:41.522Z,48.46
2018-09-29T13:10:11.603Z,49.58
2018-09-29T13:12:41.837Z,49.16
2018-09-29T13:15:12.561Z,49.44
2018-09-29T13:17:42.788Z,49.11
2018-09-29T13:20:13.010Z,48.78
2018-09-29T13:22:43.183Z,48.34
2018-09-29T13:25:22.482Z,48.61
